Time;durP1;ratioP1;P1;durP2;ratioP2;P2;SDS_P1;SDS_P2;PMS_P1;PMS_P2;Temp;Humidity;BMP_temperature;BMP_pressure;BME280_temperature;BME280_humidity;BME280_pressure;Samples;Min_cycle;Max_cycle;Signal;HPM_P1;HPM_P2
2022/06/06 00:01:48;;;;;;;27.37;20.17;;;18.00;99.90;;;;;;5077358;28;20530;-82
2022/06/06 00:04:16;;;;;;;36.60;25.30;;;18.00;99.90;;;;;;5088288;28;20516;-81
2022/06/06 00:06:44;;;;;;;40.47;29.00;;;18.00;99.90;;;;;;5096707;28;20483;-80
2022/06/06 00:09:13;;;;;;;39.53;31.17;;;18.00;99.90;;;;;;5098732;28;20484;-82
2022/06/06 00:11:41;;;;;;;46.30;34.50;;;17.90;99.90;;;;;;5096703;28;20570;-81
2022/06/06 00:14:10;;;;;;;45.07;31.97;;;17.90;99.90;;;;;;5097576;28;20569;-81
2022/06/06 00:16:39;;;;;;;57.83;36.57;;;17.90;99.90;;;;;;5097430;28;20450;-82
2022/06/06 00:19:06;;;;;;;54.20;38.93;;;17.80;99.90;;;;;;5099243;28;20472;-82
2022/06/06 00:21:34;;;;;;;49.80;34.10;;;17.80;99.90;;;;;;5099801;28;20992;-82
2022/06/06 00:24:02;;;;;;;64.00;40.00;;;17.70;99.90;;;;;;5098166;28;20546;-83
2022/06/06 00:26:31;;;;;;;55.17;36.70;;;17.70;99.90;;;;;;5106182;28;20874;-82
2022/06/06 00:28:58;;;;;;;51.60;36.30;;;17.70;99.90;;;;;;5105807;28;20454;-84
2022/06/06 00:36:57;;;;;;;65.17;39.10;;;17.50;99.90;;;;;;5097399;28;20547;-81
2022/06/06 00:39:24;;;;;;;69.10;39.60;;;17.40;99.90;;;;;;5095990;28;20521;-82
2022/06/06 00:41:54;;;;;;;61.83;37.83;;;17.30;99.90;;;;;;5096154;28;20563;-82
2022/06/06 00:44:24;;;;;;;60.57;36.27;;;17.30;99.90;;;;;;5095795;28;20522;-81
2022/06/06 00:46:56;;;;;;;58.60;37.93;;;17.30;99.90;;;;;;5095485;28;20537;-82
2022/06/06 00:49:30;;;;;;;61.23;39.13;;;17.30;99.90;;;;;;5098568;28;20492;-81
2022/06/06 00:51:58;;;;;;;61.30;36.50;;;17.20;99.90;;;;;;5098663;28;20507;-81
2022/06/06 00:54:25;;;;;;;53.70;35.13;;;17.20;99.90;;;;;;5100371;28;20549;-83
2022/06/06 00:56:56;;;;;;;53.63;34.77;;;17.20;99.90;;;;;;5100810;28;20539;-83
2022/06/06 00:59:28;;;;;;;52.03;33.23;;;17.20;99.90;;;;;;5099545;28;20447;-81
2022/06/06 01:01:55;;;;;;;46.30;31.23;;;17.20;99.90;;;;;;5099333;28;20505;-82
2022/06/06 01:04:25;;;;;;;51.17;32.47;;;17.10;99.90;;;;;;5098811;28;21022;-81
2022/06/06 01:06:53;;;;;;;42.30;30.50;;;17.10;99.90;;;;;;5099790;28;20489;-83
2022/06/06 01:09:23;;;;;;;50.70;31.40;;;17.10;99.90;;;;;;5098141;28;21008;-82
2022/06/06 01:11:55;;;;;;;42.90;29.40;;;17.10;99.90;;;;;;5097070;28;20508;-81
2022/06/06 01:14:25;;;;;;;43.67;30.03;;;17.20;99.90;;;;;;5098417;28;20482;-83
2022/06/06 01:17:00;;;;;;;44.50;29.77;;;17.20;99.90;;;;;;5098471;28;20453;-83
2022/06/06 01:20:00;;;;;;;45.93;29.40;;;17.20;99.90;;;;;;5098875;28;20883;-83
2022/06/06 01:23:14;;;;;;;41.50;28.77;;;17.10;99.90;;;;;;5082591;28;20487;-82
2022/06/06 01:26:02;;;;;;;38.83;26.27;;;17.10;99.90;;;;;;5098341;28;20537;-81
2022/06/06 01:28:49;;;;;;;37.47;27.00;;;17.10;99.90;;;;;;5097553;28;20465;-81
2022/06/06 01:31:21;;;;;;;39.37;26.43;;;17.00;99.90;;;;;;5097170;28;20452;-83
2022/06/06 01:33:51;;;;;;;43.83;28.83;;;17.00;99.90;;;;;;5098306;28;20489;-82
2022/06/06 01:36:19;;;;;;;39.27;27.63;;;17.00;99.90;;;;;;5098916;28;20562;-81
2022/06/06 01:38:47;;;;;;;40.60;28.33;;;17.00;99.90;;;;;;5098533;28;20904;-81
2022/06/06 01:41:21;;;;;;;41.17;27.03;;;17.00;99.90;;;;;;5099185;28;20516;-81
2022/06/06 01:43:53;;;;;;;37.70;25.77;;;17.10;99.90;;;;;;5103156;28;20432;-83
2022/06/06 01:46:25;;;;;;;40.87;27.43;;;17.10;99.90;;;;;;5100662;28;20436;-81
2022/06/06 01:48:52;;;;;;;37.30;25.60;;;17.10;99.90;;;;;;5101467;28;20445;-81
2022/06/06 01:51:22;;;;;;;32.33;24.07;;;17.00;99.90;;;;;;5099389;28;20481;-82
2022/06/06 01:53:49;;;;;;;38.47;25.93;;;17.00;99.90;;;;;;5099913;28;20580;-82
2022/06/06 01:56:20;;;;;;;34.67;22.77;;;17.10;99.90;;;;;;5099061;28;20452;-81
2022/06/06 01:58:48;;;;;;;31.63;22.73;;;17.10;99.90;;;;;;5098397;28;21053;-82
2022/06/06 02:01:15;;;;;;;36.77;24.37;;;17.10;99.90;;;;;;5098518;28;20833;-80
2022/06/06 02:03:43;;;;;;;32.50;23.00;;;17.10;99.90;;;;;;5092610;28;20494;-82
2022/06/06 02:06:10;;;;;;;33.00;23.43;;;17.00;99.90;;;;;;5078104;28;20560;-81
2022/06/06 02:08:37;;;;;;;35.87;23.47;;;17.00;99.90;;;;;;5078069;28;20462;-81
2022/06/06 02:11:04;;;;;;;34.60;23.40;;;16.90;99.90;;;;;;5076974;28;20458;-81
2022/06/06 02:13:31;;;;;;;33.83;23.20;;;16.80;99.90;;;;;;5074308;28;20481;-82
2022/06/06 02:16:00;;;;;;;35.50;22.20;;;16.80;99.90;;;;;;5073851;28;20507;-80
2022/06/06 02:18:28;;;;;;;31.43;21.83;;;16.80;99.90;;;;;;5074823;28;20489;-81
2022/06/06 02:20:55;;;;;;;33.53;22.83;;;16.80;99.90;;;;;;5083211;28;20482;-81
2022/06/06 02:23:22;;;;;;;31.50;22.57;;;16.90;99.90;;;;;;5077073;28;20470;-80
2022/06/06 02:25:49;;;;;;;30.67;20.57;;;16.80;99.90;;;;;;5076968;28;20461;-81
2022/06/06 02:28:16;;;;;;;38.63;23.43;;;16.80;99.90;;;;;;5078386;28;20486;-80
2022/06/06 02:30:43;;;;;;;33.60;24.30;;;16.80;99.90;;;;;;5078577;28;20949;-81
2022/06/06 02:33:11;;;;;;;34.70;23.17;;;16.80;99.90;;;;;;5082589;28;20530;-82
2022/06/06 02:35:41;;;;;;;36.97;23.93;;;16.80;99.90;;;;;;5085894;28;20525;-80
2022/06/06 02:38:10;;;;;;;34.27;23.37;;;16.80;99.90;;;;;;5077538;28;20447;-81
2022/06/06 02:40:37;;;;;;;37.23;23.97;;;16.70;99.90;;;;;;5076018;28;21031;-82
2022/06/06 02:43:04;;;;;;;33.57;22.67;;;16.70;99.90;;;;;;5076305;28;20564;-81
2022/06/06 02:45:31;;;;;;;34.73;22.53;;;16.70;99.90;;;;;;5075795;28;20537;-82
2022/06/06 02:47:59;;;;;;;40.83;23.50;;;16.70;99.90;;;;;;5075339;28;21024;-79
2022/06/06 02:50:31;;;;;;;31.17;22.03;;;16.70;99.90;;;;;;5075397;28;20451;-78
2022/06/06 02:52:59;;;;;;;34.00;23.47;;;16.70;99.90;;;;;;5127187;22;20953;-79
2022/06/06 02:55:26;;;;;;;30.30;21.90;;;16.60;99.90;;;;;;5109495;28;21252;-79
2022/06/06 02:57:54;;;;;;;37.33;22.97;;;16.60;99.90;;;;;;5109099;28;20487;-80
2022/06/06 03:00:24;;;;;;;34.70;23.23;;;16.60;99.90;;;;;;5116883;28;20967;-79
2022/06/06 03:02:51;;;;;;;30.23;21.00;;;16.60;99.90;;;;;;5118981;28;20472;-79
2022/06/06 03:05:18;;;;;;;33.90;23.10;;;16.70;99.90;;;;;;5118551;28;20484;-79
2022/06/06 03:07:59;;;;;;;34.17;21.57;;;16.60;99.90;;;;;;5106672;28;20528;-79
2022/06/06 03:10:36;;;;;;;33.03;22.30;;;16.60;99.90;;;;;;5086398;28;20904;-78
2022/06/06 03:13:20;;;;;;;33.00;22.47;;;16.60;99.90;;;;;;5112282;28;20559;-80
2022/06/06 03:21:52;;;;;;;32.50;22.57;;;16.60;99.90;;;;;;5081589;28;20819;-81
2022/06/06 03:24:32;;;;;;;38.70;26.10;;;16.70;99.90;;;;;;5080428;28;20457;-79
2022/06/06 03:27:11;;;;;;;35.30;24.37;;;16.60;99.90;;;;;;5081617;28;20983;-79
2022/06/06 03:29:50;;;;;;;34.13;24.80;;;16.60;99.90;;;;;;5081196;28;20893;-80
2022/06/06 03:32:24;;;;;;;38.57;24.50;;;16.70;99.90;;;;;;5081429;28;20481;-80
2022/06/06 03:34:58;;;;;;;35.10;24.30;;;16.70;99.90;;;;;;5080881;28;20572;-78
2022/06/06 03:37:33;;;;;;;35.47;23.70;;;16.70;99.90;;;;;;5081166;28;20533;-79
2022/06/06 03:40:11;;;;;;;37.43;23.30;;;16.60;99.90;;;;;;5082103;28;20453;-77
2022/06/06 03:42:47;;;;;;;31.03;22.73;;;16.60;99.90;;;;;;5081396;28;20497;-78
2022/06/06 03:45:22;;;;;;;32.67;23.23;;;16.60;99.90;;;;;;5080517;28;20525;-80
2022/06/06 03:48:00;;;;;;;33.10;22.27;;;16.60;99.90;;;;;;5081888;28;20454;-78
2022/06/06 03:50:38;;;;;;;27.50;21.13;;;16.70;99.90;;;;;;5080712;28;20544;-79
2022/06/06 03:53:10;;;;;;;26.43;20.97;;;16.70;99.90;;;;;;5081327;28;20554;-79
2022/06/06 03:55:51;;;;;;;29.30;18.60;;;16.70;99.90;;;;;;5081588;28;20510;-80
2022/06/06 03:58:22;;;;;;;22.63;17.73;;;16.70;99.90;;;;;;5082292;28;20519;-80
2022/06/06 04:00:49;;;;;;;26.20;18.57;;;16.70;99.90;;;;;;5081331;28;20508;-79
2022/06/06 04:03:17;;;;;;;25.50;17.63;;;16.70;99.90;;;;;;5080888;28;20491;-78
2022/06/06 04:05:44;;;;;;;27.50;19.50;;;16.70;99.90;;;;;;5080756;28;20997;-79
2022/06/06 04:08:11;;;;;;;26.33;18.97;;;16.70;99.90;;;;;;5081003;28;20519;-81
2022/06/06 04:10:46;;;;;;;25.43;16.97;;;16.70;99.90;;;;;;5080559;28;20451;-80
2022/06/06 04:13:30;;;;;;;23.60;14.10;;;16.60;99.90;;;;;;5080806;28;20492;-80
2022/06/06 04:16:01;;;;;;;28.17;17.07;;;16.70;99.90;;;;;;5080675;28;20491;-80
2022/06/06 04:18:44;;;;;;;21.23;15.10;;;16.70;99.90;;;;;;5080530;28;20455;-80
2022/06/06 04:21:20;;;;;;;18.40;13.47;;;16.70;99.90;;;;;;5080829;28;20877;-79
2022/06/06 04:24:06;;;;;;;23.70;15.67;;;16.70;99.90;;;;;;5081044;28;20562;-80
2022/06/06 04:26:43;;;;;;;24.37;15.73;;;16.70;99.90;;;;;;5083176;28;20457;-77
2022/06/06 04:29:18;;;;;;;20.37;14.70;;;16.70;99.90;;;;;;5083422;28;20447;-79
2022/06/06 04:31:50;;;;;;;22.17;13.57;;;16.70;99.90;;;;;;5079755;28;20490;-79
2022/06/06 04:34:23;;;;;;;18.57;13.50;;;16.70;99.90;;;;;;5079903;28;20481;-78
2022/06/06 04:36:59;;;;;;;17.17;12.13;;;16.80;99.90;;;;;;5079350;28;20545;-79
2022/06/06 04:39:35;;;;;;;14.63;10.70;;;16.80;99.90;;;;;;5078949;28;20454;-79
2022/06/06 04:42:10;;;;;;;20.80;11.37;;;16.90;99.90;;;;;;5079536;28;20497;-80
2022/06/06 04:44:43;;;;;;;15.50;10.10;;;16.90;99.90;;;;;;5079204;28;20473;-79
2022/06/06 04:47:16;;;;;;;12.63;9.37;;;16.90;99.90;;;;;;5079703;28;21001;-79
2022/06/06 04:49:44;;;;;;;16.80;9.00;;;16.80;99.90;;;;;;5079535;28;20453;-80
2022/06/06 04:52:13;;;;;;;14.90;9.63;;;16.80;99.90;;;;;;5078892;28;21032;-80
2022/06/06 04:54:42;;;;;;;11.40;8.23;;;16.90;99.90;;;;;;5078977;28;20485;-79
2022/06/06 04:57:14;;;;;;;13.70;9.50;;;17.00;99.90;;;;;;5078615;28;20530;-80
2022/06/06 04:59:43;;;;;;;10.80;7.90;;;17.00;99.90;;;;;;5078451;28;21164;-78
2022/06/06 05:02:10;;;;;;;12.10;8.70;;;17.10;99.90;;;;;;5078603;28;20549;-78
2022/06/06 05:04:37;;;;;;;10.73;7.93;;;17.00;99.90;;;;;;5078639;28;20519;-79
2022/06/06 05:07:23;;;;;;;11.40;8.33;;;17.00;99.90;;;;;;5077745;28;20477;-81
2022/06/06 05:10:11;;;;;;;9.57;8.20;;;17.00;99.90;;;;;;5077925;28;21040;-78
2022/06/06 05:13:18;;;;;;;10.80;7.90;;;17.00;99.90;;;;;;5077182;28;20816;-79
2022/06/06 05:15:56;;;;;;;9.37;7.43;;;17.00;99.90;;;;;;5031155;28;21036;-78
2022/06/06 05:18:47;;;;;;;10.63;8.03;;;16.90;99.90;;;;;;5076729;28;20538;-81
2022/06/06 05:21:28;;;;;;;10.27;7.50;;;17.00;99.90;;;;;;5079162;28;20458;-79
2022/06/06 05:24:18;;;;;;;10.87;7.70;;;17.00;99.90;;;;;;5078433;28;20550;-80
2022/06/06 05:27:02;;;;;;;9.60;7.23;;;17.00;99.90;;;;;;5078695;28;20482;-78
2022/06/06 05:29:48;;;;;;;10.83;7.50;;;17.00;99.90;;;;;;5078069;28;20462;-80
2022/06/06 05:32:34;;;;;;;9.10;6.70;;;17.00;99.90;;;;;;5081351;28;20492;-81
2022/06/06 05:35:08;;;;;;;11.13;7.13;;;17.10;99.90;;;;;;5081977;28;20924;-81
2022/06/06 05:37:50;;;;;;;12.53;8.50;;;17.10;99.90;;;;;;5082009;28;20477;-81
2022/06/06 05:40:35;;;;;;;11.47;6.87;;;17.10;99.90;;;;;;5080651;28;20478;-81
2022/06/06 05:43:29;;;;;;;11.37;7.13;;;17.20;99.90;;;;;;5084393;28;20906;-82
2022/06/06 05:46:13;;;;;;;10.13;6.80;;;17.20;99.90;;;;;;5081508;28;20451;-81
2022/06/06 05:48:57;;;;;;;8.73;6.70;;;17.10;99.90;;;;;;5082114;28;20486;-81
2022/06/06 05:51:38;;;;;;;12.67;7.00;;;17.00;99.90;;;;;;5080216;28;20527;-81
2022/06/06 05:54:18;;;;;;;8.67;6.07;;;16.90;99.90;;;;;;5080258;28;20934;-80
2022/06/06 05:57:10;;;;;;;8.77;5.90;;;16.80;99.90;;;;;;5080959;28;20579;-81
2022/06/06 05:59:55;;;;;;;11.10;6.90;;;16.80;99.90;;;;;;5069648;28;20494;-81
2022/06/06 06:02:48;;;;;;;7.60;5.70;;;16.80;99.90;;;;;;5081211;28;20526;-81
2022/06/06 06:05:19;;;;;;;8.90;6.17;;;16.80;99.90;;;;;;5065512;28;20493;-80
2022/06/06 06:08:01;;;;;;;8.43;6.33;;;16.90;99.90;;;;;;5080439;28;20474;-81
2022/06/06 06:10:41;;;;;;;7.90;6.10;;;16.80;99.90;;;;;;5080184;28;20478;-79
2022/06/06 06:13:30;;;;;;;8.80;6.67;;;16.70;99.90;;;;;;5079474;28;20508;-80
2022/06/06 06:16:01;;;;;;;9.17;6.30;;;16.80;99.90;;;;;;5080026;28;20521;-80
2022/06/06 06:18:33;;;;;;;6.60;5.00;;;16.80;99.90;;;;;;5079401;28;20477;-80
2022/06/06 06:21:05;;;;;;;8.20;6.33;;;16.80;99.90;;;;;;5080203;28;20482;-78
2022/06/06 06:23:37;;;;;;;9.30;6.03;;;16.90;99.90;;;;;;5080455;28;20537;-79
2022/06/06 06:26:06;;;;;;;8.07;4.87;;;17.00;99.90;;;;;;5082436;28;20430;-79
2022/06/06 06:28:35;;;;;;;8.63;5.70;;;17.20;99.90;;;;;;5082558;28;20479;-80
2022/06/06 06:31:17;;;;;;;8.07;5.10;;;17.30;99.90;;;;;;5081910;28;20476;-83
2022/06/06 06:33:57;;;;;;;7.63;5.50;;;17.40;99.90;;;;;;5080767;28;20477;-80
2022/06/06 06:36:37;;;;;;;7.10;4.57;;;17.60;99.90;;;;;;5081220;28;20553;-81
2022/06/06 06:39:23;;;;;;;6.00;4.70;;;17.50;99.90;;;;;;5080960;28;20883;-78
2022/06/06 06:42:04;;;;;;;7.30;4.20;;;17.50;99.90;;;;;;5081111;28;20482;-81
2022/06/06 06:44:34;;;;;;;6.37;4.23;;;17.70;99.90;;;;;;5080796;28;20515;-82
2022/06/06 06:47:20;;;;;;;6.13;4.53;;;17.80;99.90;;;;;;5081592;28;20970;-82
2022/06/06 06:49:54;;;;;;;7.43;4.53;;;17.90;99.90;;;;;;5081075;28;20520;-80
2022/06/06 06:52:35;;;;;;;6.20;3.97;;;18.00;99.90;;;;;;5081222;28;20526;-78
2022/06/06 06:55:22;;;;;;;8.20;5.30;;;18.10;99.90;;;;;;5085420;28;20483;-81
2022/06/06 06:58:11;;;;;;;7.97;4.13;;;18.20;99.90;;;;;;5083029;28;20554;-81
2022/06/06 07:00:45;;;;;;;4.57;3.83;;;18.20;99.90;;;;;;5082628;28;20447;-80
2022/06/06 07:09:15;;;;;;;6.73;3.80;;;18.40;99.90;;;;;;5104723;28;20523;-79
2022/06/06 07:11:59;;;;;;;7.03;3.90;;;18.40;99.90;;;;;;5103787;28;20466;-79
2022/06/06 07:14:41;;;;;;;6.20;3.93;;;18.40;99.90;;;;;;5104080;28;20937;-78
2022/06/06 07:17:11;;;;;;;5.40;3.33;;;18.40;99.90;;;;;;5105526;28;20460;-82
2022/06/06 07:19:43;;;;;;;5.67;3.20;;;18.50;99.90;;;;;;5106504;28;20456;-81
2022/06/06 07:22:12;;;;;;;5.73;4.00;;;18.60;99.90;;;;;;5104587;28;20471;-80
2022/06/06 07:24:41;;;;;;;6.20;3.40;;;18.70;99.90;;;;;;5104361;28;20498;-81
2022/06/06 07:27:10;;;;;;;6.10;3.70;;;18.80;99.90;;;;;;5105060;28;20450;-79
2022/06/06 07:29:38;;;;;;;5.67;3.50;;;18.90;99.90;;;;;;5103518;28;20478;-79
2022/06/06 07:32:22;;;;;;;5.80;3.03;;;19.10;99.90;;;;;;5104325;28;20456;-79
2022/06/06 07:35:00;;;;;;;4.53;3.30;;;19.10;99.90;;;;;;5105653;28;20482;-80
2022/06/06 07:37:51;;;;;;;5.87;3.27;;;19.20;99.90;;;;;;5101211;28;20539;-81
2022/06/06 07:40:30;;;;;;;6.33;3.87;;;19.20;99.90;;;;;;5103339;28;20448;-81
2022/06/06 07:43:21;;;;;;;4.00;3.30;;;19.30;99.90;;;;;;5102384;28;20504;-80
2022/06/06 07:45:51;;;;;;;4.20;3.33;;;19.30;99.90;;;;;;5099643;28;20470;-80
2022/06/06 07:48:32;;;;;;;5.23;2.90;;;19.40;99.90;;;;;;5104468;28;20453;-80
2022/06/06 07:51:04;;;;;;;3.83;3.03;;;19.50;99.90;;;;;;5105108;28;20453;-81
2022/06/06 07:53:40;;;;;;;39.60;2.90;;;19.50;99.90;;;;;;5103786;28;20474;-82
2022/06/06 07:56:13;;;;;;;3.20;2.47;;;19.60;99.90;;;;;;5102345;28;20490;-81
2022/06/06 07:58:48;;;;;;;4.40;2.10;;;19.70;99.90;;;;;;5104478;28;20596;-81
2022/06/06 08:01:22;;;;;;;5.13;2.80;;;19.60;99.90;;;;;;5101359;28;20492;-80
2022/06/06 08:03:52;;;;;;;3.73;2.27;;;19.80;99.90;;;;;;5101862;28;20473;-81
2022/06/06 08:06:36;;;;;;;3.70;2.40;;;19.80;99.90;;;;;;5097395;28;20439;-82
2022/06/06 08:09:44;;;;;;;2.60;1.73;;;19.80;99.90;;;;;;5105357;28;20435;-80
2022/06/06 08:12:27;;;;;;;3.60;1.70;;;19.80;99.90;;;;;;5097953;28;20513;-81
2022/06/06 08:15:07;;;;;;;3.00;2.23;;;20.00;99.90;;;;;;5105007;28;20480;-81
2022/06/06 08:17:47;;;;;;;2.40;1.60;;;20.30;99.90;;;;;;5102479;28;20508;-81
2022/06/06 08:20:21;;;;;;;3.47;1.87;;;20.70;99.90;;;;;;5104687;28;20497;-81
2022/06/06 08:22:51;;;;;;;4.40;2.03;;;20.80;99.90;;;;;;5103057;28;20492;-81
2022/06/06 08:25:21;;;;;;;4.30;2.03;;;20.70;99.90;;;;;;5092153;28;20455;-79
2022/06/06 08:27:50;;;;;;;3.60;1.90;;;20.70;99.90;;;;;;5103773;28;20449;-82
2022/06/06 08:30:18;;;;;;;3.47;1.90;;;20.70;99.90;;;;;;5104697;28;20498;-80
2022/06/06 08:32:45;;;;;;;2.37;1.60;;;20.60;99.90;;;;;;5103128;28;20544;-78
2022/06/06 08:35:12;;;;;;;3.20;1.93;;;20.70;99.90;;;;;;5104889;28;20510;-83
2022/06/06 08:38:00;;;;;;;5.03;1.60;;;20.90;99.90;;;;;;5106006;28;20478;-82
2022/06/06 08:40:53;;;;;;;3.40;1.53;;;21.30;99.90;;;;;;5106628;28;20509;-81
2022/06/06 08:43:36;;;;;;;2.50;1.40;;;21.60;99.90;;;;;;5104405;28;20476;-78
2022/06/06 08:46:21;;;;;;;5.00;1.73;;;22.00;99.90;;;;;;5106615;28;20440;-81
2022/06/06 08:49:03;;;;;;;2.27;1.20;;;22.40;99.90;;;;;;5092291;28;20465;-82
2022/06/06 08:51:50;;;;;;;3.07;1.33;;;22.70;99.90;;;;;;5082842;28;20461;-81
2022/06/06 08:54:55;;;;;;;2.60;1.30;;;22.80;99.90;;;;;;5114335;22;20494;-77
2022/06/06 08:57:43;;;;;;;3.30;1.90;;;22.50;99.90;;;;;;5048943;28;20611;-81
2022/06/06 09:00:27;;;;;;;2.33;1.53;;;21.90;99.90;;;;;;5111521;28;20449;-84
2022/06/06 09:03:45;;;;;;;2.63;1.20;;;21.80;99.90;;;;;;5111548;28;20468;-83
2022/06/06 09:06:51;;;;;;;2.50;1.40;;;21.60;99.90;;;;;;5066421;28;20475;-84
2022/06/06 09:10:00;;;;;;;3.30;1.43;;;21.60;99.90;;;;;;5006543;28;20455;-81
2022/06/06 09:13:19;;;;;;;2.90;1.30;;;21.90;99.90;;;;;;5110395;28;20833;-83
2022/06/06 09:16:15;;;;;;;2.60;1.23;;;22.10;99.90;;;;;;5092615;28;20488;-81
2022/06/06 09:19:19;;;;;;;3.10;1.27;;;21.90;99.90;;;;;;5092581;28;20814;-80
2022/06/06 09:21:58;;;;;;;3.30;1.60;;;21.70;99.90;;;;;;5079058;28;20530;-82
2022/06/06 09:24:45;;;;;;;2.57;1.20;;;21.80;99.90;;;;;;5078802;28;21062;-80
2022/06/06 09:27:48;;;;;;;2.53;1.10;;;21.60;99.90;;;;;;5077819;28;20507;-80
2022/06/06 09:30:59;;;;;;;2.20;1.23;;;21.40;99.90;;;;;;5078564;28;20518;-82
2022/06/06 09:34:03;;;;;;;2.20;1.00;;;21.30;99.90;;;;;;5058775;28;20455;-82
2022/06/06 09:36:46;;;;;;;2.07;1.00;;;21.40;99.90;;;;;;5062023;28;20510;-78
2022/06/06 09:39:32;;;;;;;2.40;0.90;;;21.40;99.90;;;;;;5077432;28;20443;-81
2022/06/06 09:42:07;;;;;;;3.77;1.17;;;21.40;99.90;;;;;;5078508;28;20431;-79
2022/06/06 09:45:06;;;;;;;2.63;1.10;;;21.40;99.90;;;;;;5078277;28;20565;-80
2022/06/06 09:48:09;;;;;;;3.47;1.60;;;21.40;99.90;;;;;;5067996;28;20459;-77
2022/06/06 09:51:02;;;;;;;3.23;1.17;;;21.30;99.90;;;;;;5076736;28;20435;-79
2022/06/06 10:00:18;;;;;;;2.27;1.00;;;21.30;99.90;;;;;;5031279;28;20470;-82
2022/06/06 10:03:18;;;;;;;2.60;0.90;;;21.90;99.90;;;;;;5074087;28;20497;-80
2022/06/06 10:06:22;;;;;;;2.67;1.07;;;22.70;99.90;;;;;;5069113;28;20543;-80
2022/06/06 10:09:39;;;;;;;2.57;1.00;;;23.20;99.90;;;;;;5074942;28;20442;-80
2022/06/06 10:12:41;;;;;;;3.13;0.80;;;23.90;99.90;;;;;;5076869;28;20522;-82
2022/06/06 10:15:28;;;;;;;2.20;1.10;;;24.20;99.90;;;;;;5081270;28;20482;-79
2022/06/06 10:18:25;;;;;;;2.90;1.10;;;24.30;99.90;;;;;;5115577;28;20512;-80
2022/06/06 10:21:17;;;;;;;2.40;0.80;;;24.20;99.90;;;;;;5074647;28;20486;-81
2022/06/06 10:23:54;;;;;;;3.17;0.80;;;23.90;99.90;;;;;;5074630;28;20892;-80
2022/06/06 10:26:38;;;;;;;2.43;0.83;;;24.40;99.90;;;;;;5081637;28;20524;-79
2022/06/06 10:33:02;;;;;;;2.53;0.80;;;24.00;99.90;;;;;;5064940;28;20431;-81
2022/06/06 10:35:43;;;;;;;2.20;0.90;;;24.30;99.90;;;;;;5103762;28;20518;-77
2022/06/06 10:38:37;;;;;;;4.53;1.00;;;24.70;99.90;;;;;;5111675;28;20965;-79
2022/06/06 10:41:14;;;;;;;1.80;0.80;;;24.90;99.90;;;;;;5098766;28;20919;-82
2022/06/06 10:44:13;;;;;;;2.80;0.77;;;25.00;99.90;;;;;;5098367;28;20504;-81
2022/06/06 10:46:57;;;;;;;3.23;0.80;;;25.30;99.90;;;;;;5102592;28;20537;-80
2022/06/06 10:49:35;;;;;;;1.80;0.90;;;25.50;99.90;;;;;;5100413;28;20453;-79
2022/06/06 10:52:36;;;;;;;1.90;0.93;;;25.80;99.90;;;;;;5094908;28;20894;-80
2022/06/06 10:55:48;;;;;;;2.20;1.00;;;25.40;99.90;;;;;;5105545;28;20476;-78
2022/06/06 10:58:59;;;;;;;2.57;0.87;;;25.00;99.90;;;;;;5099226;28;20958;-80
2022/06/06 11:02:13;;;;;;;2.07;1.00;;;25.40;99.90;;;;;;5017200;28;20532;-79
2022/06/06 11:05:15;;;;;;;3.03;1.00;;;26.20;99.90;;;;;;5003178;28;21093;-79
2022/06/06 11:08:20;;;;;;;1.90;0.90;;;27.00;99.90;;;;;;5097456;28;20930;-79
2022/06/06 11:11:15;;;;;;;2.10;0.87;;;27.10;99.90;;;;;;5108779;28;20439;-81
2022/06/06 11:13:53;;;;;;;2.47;0.90;;;26.20;98.40;;;;;;5076414;28;20453;-78
2022/06/06 11:16:50;;;;;;;2.93;1.07;;;25.50;99.90;;;;;;5078454;28;20498;-81
2022/06/06 11:19:58;;;;;;;2.83;1.10;;;24.50;98.70;;;;;;5078737;28;20478;-78
2022/06/06 11:22:33;;;;;;;4.30;0.73;;;23.90;99.90;;;;;;5078728;28;20482;-78
2022/06/06 11:25:09;;;;;;;2.10;0.87;;;23.50;99.90;;;;;;5082651;28;20566;-82
2022/06/06 11:27:59;;;;;;;2.07;0.90;;;23.40;99.90;;;;;;5080088;28;20466;-79
2022/06/06 11:30:54;;;;;;;2.20;1.10;;;23.30;99.90;;;;;;5080125;28;20554;-79
2022/06/06 11:33:54;;;;;;;2.23;1.07;;;23.20;99.90;;;;;;5021008;28;20460;-80
2022/06/06 11:36:42;;;;;;;2.87;0.90;;;22.70;99.90;;;;;;5078876;28;20502;-79
2022/06/06 11:39:52;;;;;;;2.13;1.00;;;22.60;99.90;;;;;;5079633;28;20465;-78
2022/06/06 11:42:28;;;;;;;2.17;0.90;;;22.60;99.90;;;;;;5017838;28;20456;-80
2022/06/06 11:45:16;;;;;;;3.43;1.03;;;22.90;99.90;;;;;;5017770;28;20465;-80
2022/06/06 11:47:52;;;;;;;2.80;1.00;;;22.60;99.90;;;;;;5063197;28;20547;-79
2022/06/06 11:50:49;;;;;;;2.47;1.00;;;22.10;99.90;;;;;;5079497;28;20485;-80
2022/06/06 11:53:49;;;;;;;2.10;1.10;;;21.20;99.90;;;;;;5079226;28;20479;-81
2022/06/06 11:56:39;;;;;;;2.07;0.93;;;20.70;99.90;;;;;;5079551;28;20973;-79
2022/06/06 11:59:43;;;;;;;1.80;0.80;;;20.50;99.90;;;;;;5079126;28;20546;-79
2022/06/06 12:02:46;;;;;;;2.10;0.87;;;20.50;99.90;;;;;;5077745;28;20529;-81
2022/06/06 12:05:42;;;;;;;1.90;0.80;;;20.50;99.90;;;;;;5021283;28;20508;-79
2022/06/06 12:08:45;;;;;;;2.53;0.90;;;20.50;99.90;;;;;;5078621;28;20475;-79
2022/06/06 12:11:47;;;;;;;2.10;1.00;;;20.90;99.90;;;;;;5076699;28;20542;-79
2022/06/06 12:14:39;;;;;;;2.27;0.87;;;21.60;99.90;;;;;;5077502;28;21143;-78
2022/06/06 12:17:13;;;;;;;2.00;0.90;;;22.00;99.90;;;;;;5079426;28;20565;-80
2022/06/06 12:20:18;;;;;;;2.20;1.00;;;22.30;99.90;;;;;;5078145;28;20456;-78
2022/06/06 12:23:17;;;;;;;3.33;1.00;;;21.90;99.90;;;;;;5079130;28;20822;-80
2022/06/06 12:26:04;;;;;;;3.13;0.90;;;21.60;99.90;;;;;;5067500;28;20916;-79
2022/06/06 12:29:15;;;;;;;2.20;0.87;;;21.10;99.90;;;;;;5078935;28;20462;-79
2022/06/06 12:32:10;;;;;;;3.17;0.90;;;21.50;99.90;;;;;;5079237;28;20482;-81
2022/06/06 12:34:43;;;;;;;1.80;0.80;;;22.70;99.90;;;;;;5071609;28;20481;-81
2022/06/06 12:37:14;;;;;;;2.00;0.90;;;24.00;99.90;;;;;;5081293;28;20518;-80
2022/06/06 12:39:58;;;;;;;1.93;0.87;;;25.30;99.90;;;;;;5081509;28;20490;-80
2022/06/06 12:42:35;;;;;;;1.70;0.80;;;26.60;99.90;;;;;;5080671;28;20446;-80
2022/06/06 12:45:26;;;;;;;1.87;0.90;;;27.80;99.90;;;;;;5080709;28;20490;-81
2022/06/06 12:48:22;;;;;;;2.03;0.93;;;28.80;98.20;;;;;;5078130;28;20569;-80
2022/06/06 12:50:56;;;;;;;2.20;1.13;;;29.60;91.80;;;;;;5078964;28;20490;-80
2022/06/06 12:53:59;;;;;;;3.67;1.10;;;30.30;89.80;;;;;;5079214;28;20485;-81
2022/06/06 12:56:41;;;;;;;2.50;0.90;;;31.00;88.80;;;;;;5079475;28;20504;-83
2022/06/06 12:59:36;;;;;;;2.50;1.47;;;31.60;86.30;;;;;;5080291;28;20455;-81
2022/06/06 13:02:15;;;;;;;2.27;1.10;;;32.40;72.70;;;;;;5080325;28;20542;-82
2022/06/06 13:05:08;;;;;;;2.93;1.10;;;32.90;69.10;;;;;;5079570;28;20474;-81
2022/06/06 13:07:54;;;;;;;3.30;1.00;;;32.30;66.80;;;;;;5072696;28;20970;-81
2022/06/06 13:10:36;;;;;;;2.20;0.93;;;31.00;65.80;;;;;;5083425;28;20446;-79
2022/06/06 13:13:28;;;;;;;2.10;1.00;;;29.70;68.70;;;;;;5080093;28;20489;-82
2022/06/06 13:16:02;;;;;;;3.83;0.90;;;29.30;74.00;;;;;;5081103;28;20543;-80
2022/06/06 13:18:56;;;;;;;2.73;1.10;;;30.30;75.40;;;;;;5080111;28;20490;-79
2022/06/06 13:21:35;;;;;;;3.80;1.20;;;31.50;73.70;;;;;;5079500;28;20458;-80
2022/06/06 13:24:21;;;;;;;3.40;1.03;;;31.60;71.40;;;;;;5079968;28;20482;-81
2022/06/06 13:26:53;;;;;;;2.80;1.30;;;32.20;72.60;;;;;;5079214;28;20610;-80
2022/06/06 13:29:31;;;;;;;2.20;0.90;;;33.10;68.00;;;;;;5079448;28;20527;-82
2022/06/06 13:32:07;;;;;;;2.20;0.90;;;33.50;62.10;;;;;;5078508;28;20454;-81
2022/06/06 13:34:53;;;;;;;1.90;0.80;;;33.70;60.60;;;;;;5078481;28;20502;-83
2022/06/06 13:37:35;;;;;;;2.90;1.13;;;34.40;62.30;;;;;;5077742;28;20554;-81
2022/06/06 13:40:33;;;;;;;2.77;0.97;;;34.90;58.80;;;;;;5077783;28;20455;-81
2022/06/06 13:43:42;;;;;;;3.30;1.13;;;33.90;57.70;;;;;;5077679;28;20536;-83
2022/06/06 13:46:33;;;;;;;5.50;1.10;;;33.40;60.80;;;;;;5077341;28;20534;-81
2022/06/06 13:49:28;;;;;;;1.80;0.80;;;32.90;58.30;;;;;;5070872;28;20558;-81
2022/06/06 13:52:10;;;;;;;2.97;1.10;;;33.50;59.50;;;;;;5077646;28;20475;-82
2022/06/06 13:54:39;;;;;;;2.00;0.90;;;33.90;59.60;;;;;;5078397;28;20474;-82
2022/06/06 13:57:26;;;;;;;1.90;0.90;;;34.00;60.00;;;;;;5077636;28;20561;-82
2022/06/06 14:00:16;;;;;;;2.30;0.90;;;32.90;60.80;;;;;;5077848;28;20442;-80
2022/06/06 14:02:53;;;;;;;1.90;1.00;;;32.20;59.40;;;;;;5076948;28;20461;-80
2022/06/06 14:05:50;;;;;;;2.47;0.80;;;32.70;58.50;;;;;;5077322;28;20561;-82
2022/06/06 14:08:20;;;;;;;1.97;0.87;;;33.90;59.90;;;;;;5076912;28;20471;-83
2022/06/06 14:11:00;;;;;;;3.13;1.17;;;34.40;59.60;;;;;;5076550;28;20458;-81
2022/06/06 14:13:40;;;;;;;3.10;0.90;;;35.20;57.50;;;;;;5076431;28;20443;-81
2022/06/06 14:16:20;;;;;;;1.90;0.80;;;35.50;54.90;;;;;;5076831;28;20471;-80